Time;durP1;ratioP1;P1;durP2;ratioP2;P2;SDS_P1;SDS_P2;PMS_P1;PMS_P2;Temp;Humidity;BMP_temperature;BMP_pressure;BME280_temperature;BME280_humidity;BME280_pressure;Samples;Min_cycle;Max_cycle;Signal;HPM_P1;HPM_P2
2023/02/10 00:00:18;;;;;;;8.73;4.97;;;-0.90;99.90;;;;;;5054890;28;20261;-48
2023/02/10 00:02:45;;;;;;;6.17;4.50;;;-0.80;99.90;;;;;;5054670;28;20552;-49
2023/02/10 00:05:12;;;;;;;5.00;4.27;;;-0.90;99.90;;;;;;5051625;28;20282;-48
2023/02/10 00:07:40;;;;;;;5.63;3.50;;;-0.90;99.90;;;;;;5054619;28;20264;-49
2023/02/10 00:10:08;;;;;;;7.43;4.87;;;-0.80;99.90;;;;;;5053585;28;20264;-48
2023/02/10 00:12:37;;;;;;;8.13;5.00;;;-0.80;99.90;;;;;;5041577;28;20723;-49
2023/02/10 00:15:05;;;;;;;8.63;5.20;;;-0.70;99.90;;;;;;5045802;28;20569;-49
2023/02/10 00:17:32;;;;;;;6.83;4.23;;;-0.60;99.90;;;;;;5053357;28;20208;-48
2023/02/10 00:19:59;;;;;;;3.57;2.97;;;-0.60;99.90;;;;;;5043115;28;20203;-49
2023/02/10 00:22:30;;;;;;;4.80;3.53;;;-0.60;99.90;;;;;;5054319;28;20297;-48
2023/02/10 00:24:58;;;;;;;6.07;3.73;;;-0.40;99.90;;;;;;5049313;28;20266;-49
2023/02/10 00:27:29;;;;;;;4.93;3.67;;;-0.50;99.90;;;;;;5049372;28;20199;-49
2023/02/10 00:29:56;;;;;;;6.93;4.57;;;-0.50;99.90;;;;;;5053779;28;20198;-48
2023/02/10 00:32:23;;;;;;;4.23;3.63;;;-0.50;99.90;;;;;;5053983;28;20200;-49
2023/02/10 00:34:50;;;;;;;6.43;3.73;;;-0.50;99.90;;;;;;5052864;28;20229;-49
2023/02/10 00:37:17;;;;;;;11.30;3.97;;;-0.50;99.90;;;;;;5053874;28;20664;-49
2023/02/10 00:39:45;;;;;;;5.50;3.73;;;-0.50;99.90;;;;;;5053117;28;20204;-49
2023/02/10 00:42:13;;;;;;;4.93;4.10;;;-0.50;99.90;;;;;;5052314;28;20371;-49
2023/02/10 00:44:40;;;;;;;4.33;3.30;;;-0.50;99.90;;;;;;5052464;28;20227;-49
2023/02/10 00:47:07;;;;;;;4.70;3.43;;;-0.60;99.90;;;;;;5053459;28;20197;-49
2023/02/10 00:49:34;;;;;;;4.73;2.80;;;-0.70;99.90;;;;;;5053981;28;20227;-48
2023/02/10 00:52:01;;;;;;;3.67;3.23;;;-0.70;99.90;;;;;;5044285;28;20618;-49
2023/02/10 00:54:28;;;;;;;5.90;4.37;;;-0.70;99.90;;;;;;5052475;28;20222;-48
2023/02/10 00:56:55;;;;;;;7.63;4.23;;;-0.70;99.90;;;;;;5053831;28;20250;-49
2023/02/10 00:59:23;;;;;;;7.57;5.27;;;-0.70;99.90;;;;;;5052725;28;20190;-49
2023/02/10 01:01:50;;;;;;;12.27;4.70;;;-0.70;99.90;;;;;;5053585;28;20554;-49
2023/02/10 01:04:18;;;;;;;5.93;4.47;;;-0.80;99.90;;;;;;5052347;28;20215;-49
2023/02/10 01:06:45;;;;;;;7.23;4.30;;;-0.80;99.90;;;;;;5051908;28;20210;-49
2023/02/10 01:09:12;;;;;;;6.17;4.33;;;-0.80;99.90;;;;;;5053790;28;20214;-49
2023/02/10 01:11:39;;;;;;;7.77;4.47;;;-0.80;99.90;;;;;;5053854;28;20249;-49
2023/02/10 01:14:06;;;;;;;5.60;3.77;;;-0.90;99.90;;;;;;5043370;28;20223;-49
2023/02/10 01:16:34;;;;;;;6.23;5.00;;;-0.90;99.90;;;;;;5053050;28;20205;-49
2023/02/10 01:19:01;;;;;;;7.63;5.17;;;-1.00;99.90;;;;;;5052080;28;20253;-49
2023/02/10 01:21:28;;;;;;;5.47;4.07;;;-1.10;99.90;;;;;;5053650;28;20194;-49
2023/02/10 01:23:56;;;;;;;9.00;5.17;;;-1.20;99.90;;;;;;5050692;28;20214;-48
2023/02/10 01:26:24;;;;;;;7.40;5.30;;;-1.30;99.90;;;;;;5053040;28;20194;-49
2023/02/10 01:28:51;;;;;;;8.10;4.37;;;-1.30;99.90;;;;;;5050664;28;20288;-48
2023/02/10 01:31:20;;;;;;;4.30;4.00;;;-1.40;99.90;;;;;;5053220;28;20262;-49
2023/02/10 01:33:52;;;;;;;5.70;4.47;;;-1.40;99.90;;;;;;5051456;28;20211;-48
2023/02/10 01:36:20;;;;;;;4.00;3.57;;;-1.40;99.90;;;;;;5047775;28;20206;-49
2023/02/10 01:38:47;;;;;;;9.67;5.27;;;-1.40;99.90;;;;;;5049966;28;20249;-48
2023/02/10 01:41:17;;;;;;;8.00;4.77;;;-1.50;99.90;;;;;;5044831;28;20197;-49
2023/02/10 01:44:00;;;;;;;6.87;4.67;;;-1.50;99.90;;;;;;5051663;28;20202;-48
2023/02/10 01:46:28;;;;;;;6.37;4.70;;;-1.60;99.90;;;;;;5052799;28;20206;-48
2023/02/10 01:48:59;;;;;;;9.33;5.20;;;-1.60;99.90;;;;;;5052845;28;20271;-49
2023/02/10 01:51:32;;;;;;;5.77;4.30;;;-1.70;99.90;;;;;;5053092;28;20572;-49
2023/02/10 01:54:00;;;;;;;6.07;4.67;;;-1.70;99.90;;;;;;5050708;28;20232;-48
2023/02/10 01:56:28;;;;;;;6.47;4.57;;;-1.70;99.90;;;;;;5051373;28;20201;-49
2023/02/10 01:58:56;;;;;;;6.10;4.53;;;-1.80;99.90;;;;;;5048688;28;20242;-48
2023/02/10 02:01:23;;;;;;;6.10;4.30;;;-1.80;99.90;;;;;;5051473;28;20200;-49
2023/02/10 02:03:50;;;;;;;4.23;3.03;;;-1.80;99.90;;;;;;5050565;28;20208;-49
2023/02/10 02:06:19;;;;;;;5.57;3.60;;;-1.70;99.90;;;;;;5046899;28;20202;-48
2023/02/10 02:08:46;;;;;;;6.70;3.77;;;-1.70;99.90;;;;;;5049716;28;20278;-48
2023/02/10 02:11:22;;;;;;;5.10;4.20;;;-1.70;99.90;;;;;;5051634;28;20208;-49
2023/02/10 02:14:04;;;;;;;5.83;3.77;;;-1.70;99.90;;;;;;5050368;28;20197;-48
2023/02/10 02:16:52;;;;;;;4.97;3.97;;;-1.70;99.90;;;;;;5050255;28;20255;-48
2023/02/10 02:19:51;;;;;;;5.50;4.23;;;-1.80;99.90;;;;;;5052331;28;20199;-49
2023/02/10 02:22:49;;;;;;;6.03;4.27;;;-1.80;99.90;;;;;;5051192;28;20720;-49
2023/02/10 02:25:33;;;;;;;5.57;4.63;;;-1.80;99.90;;;;;;5046868;28;20571;-49
2023/02/10 02:28:16;;;;;;;7.67;5.70;;;-1.80;99.90;;;;;;5048635;28;20212;-49
2023/02/10 02:31:28;;;;;;;7.40;4.13;;;-1.90;99.90;;;;;;5049138;28;20236;-49
2023/02/10 02:33:58;;;;;;;9.80;5.33;;;-1.90;99.90;;;;;;5010259;28;20284;-49
2023/02/10 02:36:31;;;;;;;8.07;5.40;;;-2.00;99.90;;;;;;5052314;28;20195;-49
2023/02/10 02:39:01;;;;;;;7.17;4.53;;;-2.10;99.90;;;;;;5047232;28;20195;-49
2023/02/10 02:41:28;;;;;;;5.53;4.33;;;-2.10;99.90;;;;;;5051216;28;20203;-48
2023/02/10 02:43:57;;;;;;;4.50;4.10;;;-2.20;99.90;;;;;;5051501;28;20222;-49
2023/02/10 02:46:32;;;;;;;5.13;3.73;;;-2.20;99.90;;;;;;5051984;28;20345;-49
2023/02/10 02:49:07;;;;;;;5.80;3.77;;;-2.10;99.90;;;;;;5049154;28;20219;-49
2023/02/10 02:51:43;;;;;;;7.47;5.00;;;-2.10;99.90;;;;;;5051852;28;20245;-49
2023/02/10 02:54:19;;;;;;;7.07;4.57;;;-2.00;99.90;;;;;;5041533;28;20230;-49
2023/02/10 02:56:50;;;;;;;5.60;3.93;;;-2.00;99.90;;;;;;5073692;22;20743;-50
2023/02/10 02:59:23;;;;;;;11.43;5.17;;;-2.00;99.90;;;;;;5041557;28;20677;-51
2023/02/10 03:01:55;;;;;;;8.17;6.17;;;-2.00;99.90;;;;;;5049536;28;20577;-50
2023/02/10 03:04:27;;;;;;;7.13;5.47;;;-2.10;99.90;;;;;;5048088;28;20361;-50
2023/02/10 03:06:54;;;;;;;7.33;4.80;;;-2.10;99.90;;;;;;5048154;28;20279;-50
2023/02/10 03:09:22;;;;;;;8.23;5.63;;;-2.20;99.90;;;;;;5041690;28;20603;-51
2023/02/10 03:11:49;;;;;;;11.07;6.00;;;-2.20;99.90;;;;;;5051728;28;20220;-51
2023/02/10 03:14:16;;;;;;;5.97;4.33;;;-2.20;99.90;;;;;;5053050;28;20249;-50
2023/02/10 03:16:43;;;;;;;8.17;4.27;;;-2.20;99.90;;;;;;5053423;28;20224;-51
2023/02/10 03:19:10;;;;;;;9.83;5.63;;;-2.20;99.90;;;;;;5052754;28;20265;-51
2023/02/10 03:21:38;;;;;;;6.00;4.53;;;-2.20;99.90;;;;;;5054206;28;20199;-51
2023/02/10 03:24:06;;;;;;;7.50;5.23;;;-2.20;99.90;;;;;;5052718;28;20199;-51
2023/02/10 03:26:33;;;;;;;8.03;3.73;;;-2.20;99.90;;;;;;5054059;28;20223;-52
2023/02/10 03:28:59;;;;;;;11.30;4.37;;;-2.20;99.90;;;;;;5047224;28;20299;-50
2023/02/10 03:31:26;;;;;;;4.17;3.60;;;-2.20;99.90;;;;;;5051794;28;20726;-50
2023/02/10 03:33:53;;;;;;;5.00;4.30;;;-2.10;99.90;;;;;;5053598;28;20257;-51
2023/02/10 03:36:20;;;;;;;5.67;3.37;;;-2.10;99.90;;;;;;5053788;28;20304;-50
2023/02/10 03:38:49;;;;;;;7.13;3.80;;;-2.20;99.90;;;;;;5050683;28;20611;-51
2023/02/10 03:41:16;;;;;;;5.67;3.87;;;-2.20;99.90;;;;;;5047102;28;20438;-52
2023/02/10 03:43:43;;;;;;;4.90;3.63;;;-2.20;99.90;;;;;;5047784;28;20291;-50
2023/02/10 03:46:11;;;;;;;5.00;3.23;;;-2.20;99.90;;;;;;5052520;28;20223;-49
2023/02/10 03:48:38;;;;;;;3.83;2.60;;;-2.20;99.90;;;;;;5051128;28;20204;-50
2023/02/10 03:51:07;;;;;;;6.23;3.27;;;-2.30;99.90;;;;;;5052989;28;20503;-51
2023/02/10 03:53:35;;;;;;;4.40;3.30;;;-2.20;99.90;;;;;;5053163;28;20441;-50
2023/02/10 03:56:04;;;;;;;8.03;3.63;;;-2.20;99.90;;;;;;5047715;28;20227;-50
2023/02/10 03:58:31;;;;;;;3.73;3.20;;;-2.10;99.90;;;;;;5049432;28;20211;-51
2023/02/10 04:00:58;;;;;;;4.10;3.03;;;-2.00;99.90;;;;;;5043851;28;20503;-50
2023/02/10 04:03:26;;;;;;;3.70;2.90;;;-1.90;99.90;;;;;;5053169;28;20330;-52
2023/02/10 04:05:52;;;;;;;5.67;3.60;;;-1.80;99.90;;;;;;5053303;28;20270;-50
2023/02/10 04:08:19;;;;;;;5.97;3.20;;;-1.80;99.90;;;;;;5049675;28;20364;-50
2023/02/10 04:10:46;;;;;;;7.60;3.80;;;-1.80;99.90;;;;;;5053175;28;20476;-49
2023/02/10 04:13:15;;;;;;;3.30;2.97;;;-1.90;99.90;;;;;;5050971;28;20207;-50
2023/02/10 04:15:42;;;;;;;6.00;3.53;;;-1.90;99.90;;;;;;5053326;28;20280;-51
2023/02/10 04:18:09;;;;;;;4.03;2.37;;;-1.90;99.90;;;;;;5047012;28;20204;-49
2023/02/10 04:20:36;;;;;;;7.10;2.90;;;-1.90;99.90;;;;;;5049595;28;20214;-50
2023/02/10 04:23:03;;;;;;;6.90;4.20;;;-1.90;99.90;;;;;;5052018;28;20203;-50
2023/02/10 04:25:30;;;;;;;7.30;3.67;;;-1.80;99.90;;;;;;5052884;28;20464;-51
2023/02/10 04:27:57;;;;;;;8.83;3.43;;;-1.90;99.90;;;;;;5051191;28;20197;-50
2023/02/10 04:30:25;;;;;;;4.23;3.20;;;-1.90;99.90;;;;;;5049060;28;20215;-49
2023/02/10 04:32:52;;;;;;;5.70;3.87;;;-1.90;99.90;;;;;;5051456;28;20200;-50
2023/02/10 04:35:19;;;;;;;4.13;3.63;;;-1.90;99.90;;;;;;5053026;28;20214;-50
2023/02/10 04:37:46;;;;;;;3.37;2.77;;;-1.80;99.90;;;;;;5050703;28;20247;-51
2023/02/10 04:40:13;;;;;;;6.63;4.30;;;-1.80;99.90;;;;;;5052717;28;20290;-50
2023/02/10 04:42:40;;;;;;;3.60;2.83;;;-1.80;99.90;;;;;;5052637;28;20202;-50
2023/02/10 04:45:08;;;;;;;5.20;3.17;;;-1.90;99.90;;;;;;5050692;28;20477;-50
2023/02/10 04:47:36;;;;;;;5.60;3.80;;;-2.00;99.90;;;;;;5051185;28;20248;-51
2023/02/10 04:50:04;;;;;;;4.70;3.33;;;-2.00;99.90;;;;;;5052667;28;20211;-50
2023/02/10 04:52:31;;;;;;;4.40;3.07;;;-2.10;99.90;;;;;;5052446;28;20457;-50
2023/02/10 04:54:58;;;;;;;5.00;3.43;;;-2.10;99.90;;;;;;5049375;28;20254;-51
2023/02/10 04:57:29;;;;;;;11.33;3.63;;;-2.10;99.90;;;;;;5044071;28;20227;-51
2023/02/10 04:59:56;;;;;;;7.27;3.33;;;-2.10;99.90;;;;;;5049660;28;20653;-50
2023/02/10 05:02:23;;;;;;;6.07;4.30;;;-2.20;99.90;;;;;;5048422;28;20203;-50
2023/02/10 05:04:51;;;;;;;5.87;3.37;;;-2.20;99.90;;;;;;5048194;28;20269;-50
2023/02/10 05:07:19;;;;;;;7.53;3.73;;;-2.20;99.90;;;;;;5049316;28;20830;-49
2023/02/10 05:09:46;;;;;;;6.67;3.50;;;-2.30;99.90;;;;;;5047640;28;20482;-52
2023/02/10 05:12:13;;;;;;;7.70;3.50;;;-2.30;99.90;;;;;;5049677;28;20210;-50
2023/02/10 05:14:40;;;;;;;10.43;4.53;;;-2.40;99.90;;;;;;5050941;28;20211;-49
2023/02/10 05:17:07;;;;;;;8.23;4.53;;;-2.30;99.90;;;;;;5051469;28;20556;-50
2023/02/10 05:19:34;;;;;;;5.77;4.23;;;-2.30;99.90;;;;;;5052087;28;20496;-49
2023/02/10 05:22:02;;;;;;;6.17;3.60;;;-2.30;99.90;;;;;;5051933;28;20264;-51
2023/02/10 05:24:29;;;;;;;12.77;4.37;;;-2.30;99.90;;;;;;5050713;28;20656;-50
2023/02/10 05:26:56;;;;;;;5.20;3.17;;;-2.40;99.90;;;;;;5042255;28;20530;-50
2023/02/10 05:29:23;;;;;;;4.43;3.00;;;-2.50;99.90;;;;;;5050283;28;20676;-51
2023/02/10 05:31:50;;;;;;;6.80;3.30;;;-2.50;99.90;;;;;;5048441;28;20273;-49
2023/02/10 05:34:17;;;;;;;5.27;4.00;;;-2.60;99.90;;;;;;5051033;28;20520;-50
2023/02/10 05:36:44;;;;;;;8.13;4.80;;;-2.60;99.90;;;;;;5048248;28;20489;-49
2023/02/10 05:39:25;;;;;;;6.00;4.60;;;-2.60;99.90;;;;;;5044820;28;20458;-50
2023/02/10 05:41:53;;;;;;;8.40;5.67;;;-2.60;99.90;;;;;;5048231;28;20198;-49
2023/02/10 05:44:21;;;;;;;8.93;5.50;;;-2.60;99.90;;;;;;5042365;28;20680;-50
2023/02/10 05:46:48;;;;;;;6.47;4.33;;;-2.70;99.90;;;;;;5039899;28;20477;-50
2023/02/10 05:49:15;;;;;;;14.83;5.53;;;-2.70;99.90;;;;;;5046749;28;20195;-50
2023/02/10 05:51:43;;;;;;;10.77;4.87;;;-2.70;99.90;;;;;;5042613;28;20211;-49
2023/02/10 05:54:10;;;;;;;8.90;3.50;;;-2.70;99.90;;;;;;5039255;28;21017;-50
2023/02/10 05:56:39;;;;;;;7.43;3.40;;;-2.60;99.90;;;;;;5046038;28;20243;-52
2023/02/10 05:59:06;;;;;;;4.53;2.90;;;-2.50;99.90;;;;;;5044295;28;20437;-50
2023/02/10 06:01:33;;;;;;;5.30;3.80;;;-2.50;99.90;;;;;;5046155;28;21031;-50
2023/02/10 06:04:00;;;;;;;12.80;4.60;;;-2.60;99.90;;;;;;5050603;28;20248;-49
2023/02/10 06:06:27;;;;;;;6.63;3.90;;;-2.50;99.90;;;;;;5037190;28;20532;-49
2023/02/10 06:08:55;;;;;;;8.03;4.43;;;-2.50;99.90;;;;;;5044906;28;20194;-50
2023/02/10 06:11:22;;;;;;;14.50;3.40;;;-2.50;99.90;;;;;;5048355;28;20542;-51
2023/02/10 06:13:50;;;;;;;4.73;3.33;;;-2.60;99.90;;;;;;5049391;28;20199;-49
2023/02/10 06:16:17;;;;;;;4.87;3.47;;;-2.60;99.90;;;;;;5050076;28;20235;-49
2023/02/10 06:18:47;;;;;;;5.73;2.90;;;-2.60;99.90;;;;;;5048840;28;20603;-51
2023/02/10 06:21:14;;;;;;;6.63;3.00;;;-2.60;99.90;;;;;;5049464;28;20320;-51
2023/02/10 06:23:41;;;;;;;4.87;3.20;;;-2.60;99.90;;;;;;5047844;28;20256;-50
2023/02/10 06:26:08;;;;;;;9.50;4.60;;;-2.60;99.90;;;;;;5050762;28;20292;-48
2023/02/10 06:28:35;;;;;;;9.37;4.87;;;-2.60;99.90;;;;;;5042191;28;20208;-50
2023/02/10 06:31:03;;;;;;;15.67;5.37;;;-2.60;99.90;;;;;;5030936;28;20285;-49
2023/02/10 06:33:30;;;;;;;8.13;5.07;;;-2.60;99.90;;;;;;5036341;28;20493;-50
2023/02/10 06:35:57;;;;;;;7.53;4.57;;;-2.60;99.90;;;;;;5043117;28;20265;-50
2023/02/10 06:38:24;;;;;;;11.90;5.20;;;-2.60;99.90;;;;;;5068173;28;21038;-50
2023/02/10 06:40:51;;;;;;;8.07;4.70;;;-2.60;99.90;;;;;;5066418;28;20203;-49
2023/02/10 06:43:18;;;;;;;5.27;3.83;;;-2.60;99.90;;;;;;5066134;28;20445;-49
2023/02/10 06:45:45;;;;;;;10.10;3.60;;;-2.60;99.90;;;;;;5049847;28;20740;-50
2023/02/10 06:48:13;;;;;;;5.73;3.93;;;-2.60;99.90;;;;;;5037406;28;20456;-50
2023/02/10 06:50:40;;;;;;;9.20;3.80;;;-2.60;99.90;;;;;;5049447;28;21250;-50
2023/02/10 06:53:07;;;;;;;7.10;4.33;;;-2.60;99.90;;;;;;5045059;28;20510;-50
2023/02/10 06:55:35;;;;;;;9.60;4.90;;;-2.60;99.90;;;;;;5045262;28;20281;-49
2023/02/10 06:58:03;;;;;;;5.97;3.77;;;-2.50;99.90;;;;;;5050216;28;20606;-49
2023/02/10 07:00:31;;;;;;;9.40;4.67;;;-2.50;99.90;;;;;;5050356;28;20200;-50
2023/02/10 07:02:58;;;;;;;9.47;4.80;;;-2.50;99.90;;;;;;5047921;28;20234;-49
2023/02/10 07:05:27;;;;;;;5.47;4.00;;;-2.50;99.90;;;;;;5048973;28;20476;-50
2023/02/10 07:07:54;;;;;;;8.63;4.00;;;-2.50;99.90;;;;;;5047995;28;20484;-50
2023/02/10 07:10:21;;;;;;;8.23;3.40;;;-2.50;99.90;;;;;;5050133;28;20494;-51
2023/02/10 07:12:48;;;;;;;8.13;3.70;;;-2.50;99.90;;;;;;5040928;28;20215;-50
2023/02/10 07:15:17;;;;;;;6.17;5.30;;;-2.40;99.90;;;;;;5049296;28;20359;-51
2023/02/10 07:17:44;;;;;;;7.33;5.30;;;-2.30;99.90;;;;;;5037797;28;20446;-50
2023/02/10 07:20:12;;;;;;;13.27;7.30;;;-2.20;99.90;;;;;;5030912;28;20331;-51
2023/02/10 07:22:40;;;;;;;14.07;8.73;;;-2.10;99.90;;;;;;5045556;28;20256;-50
2023/02/10 07:25:07;;;;;;;19.73;6.93;;;-2.00;99.90;;;;;;5050303;28;20512;-51
2023/02/10 07:27:34;;;;;;;13.50;7.23;;;-2.00;99.90;;;;;;5048642;28;20199;-49
2023/02/10 07:30:01;;;;;;;16.37;7.60;;;-2.00;99.90;;;;;;5046639;28;20261;-51
2023/02/10 07:32:31;;;;;;;19.03;8.63;;;-2.00;99.90;;;;;;5046878;28;20219;-49
2023/02/10 07:34:58;;;;;;;26.47;13.63;;;-2.00;99.90;;;;;;5048799;28;20250;-50
2023/02/10 07:37:26;;;;;;;26.77;13.17;;;-1.90;99.90;;;;;;5050270;28;20198;-50
2023/02/10 07:39:54;;;;;;;15.00;8.10;;;-1.90;99.90;;;;;;5049385;28;20236;-49
2023/02/10 07:42:21;;;;;;;12.50;5.90;;;-1.90;99.90;;;;;;5047916;28;20207;-49
2023/02/10 07:44:48;;;;;;;14.83;6.17;;;-1.90;99.90;;;;;;5049606;28;20202;-49
2023/02/10 07:47:15;;;;;;;10.77;4.97;;;-1.70;99.90;;;;;;5050156;28;20210;-49
2023/02/10 07:49:42;;;;;;;11.73;6.20;;;-1.60;99.90;;;;;;5049900;28;20265;-50
2023/02/10 07:52:09;;;;;;;7.23;5.27;;;-1.50;99.90;;;;;;5047663;28;20208;-49
2023/02/10 07:54:37;;;;;;;7.30;5.03;;;-1.40;99.90;;;;;;5049495;28;20644;-49
2023/02/10 07:57:05;;;;;;;7.37;4.67;;;-1.40;99.90;;;;;;5049576;28;20283;-50
2023/02/10 07:59:33;;;;;;;4.53;3.60;;;-1.40;99.90;;;;;;5053375;28;20261;-50
2023/02/10 08:02:00;;;;;;;16.07;4.27;;;-1.30;99.90;;;;;;5052351;28;20553;-51
2023/02/10 08:04:27;;;;;;;7.47;3.77;;;-1.10;99.90;;;;;;5052955;28;20287;-50
2023/02/10 08:06:56;;;;;;;7.80;3.60;;;-0.90;99.90;;;;;;5053486;28;20222;-50
2023/02/10 08:09:23;;;;;;;6.13;3.40;;;-0.40;99.90;;;;;;5053644;28;20289;-50
2023/02/10 08:11:50;;;;;;;5.17;3.37;;;0.20;99.90;;;;;;5050306;28;20288;-50
2023/02/10 08:14:18;;;;;;;14.27;4.23;;;0.80;99.90;;;;;;5047865;28;20211;-51
2023/02/10 08:16:45;;;;;;;3.90;3.60;;;1.30;99.90;;;;;;5053132;28;20275;-50
2023/02/10 08:19:12;;;;;;;4.87;2.97;;;1.70;99.90;;;;;;5052938;28;20640;-50
2023/02/10 08:21:40;;;;;;;5.73;3.40;;;2.00;99.90;;;;;;5051401;28;20551;-51
2023/02/10 08:24:07;;;;;;;7.33;2.93;;;2.10;99.90;;;;;;5046185;28;20202;-50
2023/02/10 08:26:35;;;;;;;5.70;3.00;;;2.10;99.90;;;;;;5053066;28;20295;-51
2023/02/10 08:29:02;;;;;;;3.07;2.60;;;1.90;99.90;;;;;;5053466;28;20211;-50
2023/02/10 08:31:30;;;;;;;3.77;2.67;;;1.90;99.90;;;;;;5052145;28;20222;-51
2023/02/10 08:33:57;;;;;;;6.50;3.20;;;1.90;99.90;;;;;;5044683;28;20190;-50
2023/02/10 08:36:24;;;;;;;7.90;2.83;;;1.90;99.90;;;;;;5044573;28;20712;-51
2023/02/10 08:38:52;;;;;;;3.73;3.00;;;1.80;99.90;;;;;;5050194;28;20669;-50
2023/02/10 08:41:19;;;;;;;3.03;2.83;;;1.60;99.90;;;;;;5045370;28;20550;-51
2023/02/10 08:43:46;;;;;;;3.33;1.70;;;1.50;99.90;;;;;;5052783;28;20201;-50
2023/02/10 08:46:14;;;;;;;3.97;1.90;;;1.60;99.90;;;;;;5051123;28;20218;-49
2023/02/10 08:48:42;;;;;;;3.87;2.23;;;1.90;99.90;;;;;;5048740;28;20206;-52
2023/02/10 08:51:11;;;;;;;2.73;1.77;;;2.40;99.90;;;;;;5047070;28;20672;-51
2023/02/10 08:53:38;;;;;;;2.33;2.13;;;2.50;99.90;;;;;;5052221;28;20206;-50
2023/02/10 08:56:08;;;;;;;7.97;3.77;;;2.50;99.90;;;;;;5074217;22;20634;-52
2023/02/10 08:58:35;;;;;;;3.20;2.60;;;2.90;99.90;;;;;;5050020;28;20207;-51
2023/02/10 09:01:02;;;;;;;5.17;2.40;;;3.40;99.90;;;;;;5052909;28;20199;-51
2023/02/10 09:03:29;;;;;;;7.53;2.50;;;3.80;99.90;;;;;;5051835;28;20675;-51
2023/02/10 09:05:57;;;;;;;2.87;2.47;;;4.20;99.90;;;;;;5046891;28;20220;-50
2023/02/10 09:08:24;;;;;;;6.07;2.80;;;4.20;99.90;;;;;;5030359;28;20603;-50
2023/02/10 09:10:51;;;;;;;2.60;1.77;;;4.70;99.90;;;;;;5032540;28;20301;-50
2023/02/10 09:13:18;;;;;;;3.27;2.67;;;5.30;99.90;;;;;;5030633;28;20219;-50
2023/02/10 09:15:45;;;;;;;2.93;2.20;;;5.80;99.90;;;;;;5032764;28;20208;-51
2023/02/10 09:18:12;;;;;;;2.40;2.20;;;6.00;99.90;;;;;;5027047;28;20671;-51
2023/02/10 09:20:39;;;;;;;3.30;2.83;;;6.30;99.90;;;;;;5029641;28;20584;-50
2023/02/10 09:23:08;;;;;;;4.90;1.93;;;6.20;99.90;;;;;;5031716;28;20201;-50
2023/02/10 09:25:35;;;;;;;3.80;2.20;;;6.30;99.90;;;;;;5032246;28;20208;-50
2023/02/10 09:28:02;;;;;;;4.33;1.93;;;6.20;99.90;;;;;;5024904;28;20624;-52
2023/02/10 09:30:29;;;;;;;2.43;2.10;;;6.50;99.90;;;;;;5023558;28;20208;-50
2023/02/10 09:32:56;;;;;;;3.37;2.23;;;6.50;99.90;;;;;;5028782;28;20205;-51
2023/02/10 09:35:23;;;;;;;3.10;1.67;;;6.80;99.70;;;;;;5025046;28;20203;-50
2023/02/10 09:37:50;;;;;;;2.60;1.80;;;6.60;98.40;;;;;;5031575;28;20255;-49
2023/02/10 09:40:21;;;;;;;4.27;1.63;;;6.50;99.90;;;;;;5032165;28;20212;-50
2023/02/10 09:43:08;;;;;;;2.97;2.03;;;6.80;98.70;;;;;;5024978;28;20204;-51
2023/02/10 09:45:40;;;;;;;2.00;1.73;;;6.70;98.40;;;;;;5033072;28;20297;-50
2023/02/10 09:48:23;;;;;;;3.23;2.10;;;6.90;97.80;;;;;;5024152;28;20200;-50
2023/02/10 09:51:00;;;;;;;4.43;2.13;;;7.30;97.30;;;;;;5023656;28;20268;-51
2023/02/10 09:53:30;;;;;;;1.83;1.73;;;7.50;97.20;;;;;;5033106;28;20221;-50
2023/02/10 09:56:02;;;;;;;1.90;1.80;;;7.60;96.70;;;;;;5032833;28;20232;-51
2023/02/10 09:58:34;;;;;;;2.40;1.47;;;7.50;97.20;;;;;;5033217;28;20635;-51
2023/02/10 10:01:06;;;;;;;3.73;1.40;;;7.70;96.20;;;;;;5023940;28;20250;-50
2023/02/10 10:03:42;;;;;;;4.50;1.80;;;7.50;97.60;;;;;;5032809;28;20208;-51
2023/02/10 10:06:17;;;;;;;4.97;2.00;;;8.00;96.40;;;;;;5032816;28;20221;-51
2023/02/10 10:08:51;;;;;;;3.43;1.73;;;8.30;94.80;;;;;;5032536;28;20264;-51
2023/02/10 10:11:31;;;;;;;2.47;1.70;;;8.30;94.00;;;;;;5021848;28;20282;-50
2023/02/10 10:13:58;;;;;;;2.80;1.37;;;8.30;92.70;;;;;;5012783;28;20197;-52
2023/02/10 10:16:47;;;;;;;5.90;2.00;;;8.20;93.20;;;;;;5012853;28;20301;-50
2023/02/10 10:19:23;;;;;;;5.80;2.13;;;8.30;93.80;;;;;;5014517;28;20204;-50
2023/02/10 10:22:01;;;;;;;2.00;1.80;;;8.50;92.60;;;;;;5023000;28;20242;-51
2023/02/10 10:24:47;;;;;;;1.93;1.83;;;7.60;92.00;;;;;;5024316;28;20253;-50
2023/02/10 10:27:28;;;;;;;2.90;1.40;;;7.70;93.40;;;;;;5012822;28;20227;-51
2023/02/10 10:30:02;;;;;;;3.07;1.40;;;7.70;91.90;;;;;;5016829;28;20207;-51
2023/02/10 10:32:39;;;;;;;5.30;2.17;;;7.60;93.40;;;;;;5023802;28;20772;-50
2023/02/10 10:35:15;;;;;;;1.27;1.17;;;7.70;93.70;;;;;;5012602;28;20744;-50
2023/02/10 10:37:43;;;;;;;1.83;1.73;;;7.90;93.10;;;;;;5012585;28;20653;-50
2023/02/10 10:40:17;;;;;;;2.03;1.37;;;8.00;92.70;;;;;;5016109;28;20198;-51
2023/02/10 10:42:49;;;;;;;3.73;1.57;;;7.90;93.10;;;;;;5031030;28;20207;-49
2023/02/10 10:45:20;;;;;;;2.80;1.37;;;7.80;93.50;;;;;;5030973;28;20202;-50
2023/02/10 10:47:53;;;;;;;2.13;1.10;;;8.10;93.60;;;;;;5031706;28;20662;-51
2023/02/10 10:50:23;;;;;;;2.07;1.57;;;8.10;93.30;;;;;;5029752;28;20208;-50
2023/02/10 10:52:52;;;;;;;1.87;1.70;;;8.50;93.50;;;;;;5030845;28;20220;-50
2023/02/10 10:55:24;;;;;;;2.23;1.40;;;8.40;92.10;;;;;;5022841;28;20202;-50
2023/02/10 10:57:55;;;;;;;3.73;1.53;;;8.30;91.40;;;;;;5031630;28;20604;-50
2023/02/10 11:00:23;;;;;;;3.93;1.87;;;7.90;92.70;;;;;;5028910;28;20196;-50
2023/02/10 11:02:56;;;;;;;1.87;1.77;;;7.70;93.50;;;;;;5031343;28;20195;-49
2023/02/10 11:05:26;;;;;;;2.23;1.53;;;7.40;93.30;;;;;;5031812;28;20266;-49
2023/02/10 11:07:54;;;;;;;3.20;1.60;;;7.30;93.80;;;;;;5031547;28;20776;-51
2023/02/10 11:10:28;;;;;;;4.47;1.93;;;7.10;92.60;;;;;;5029578;28;20240;-49
2023/02/10 11:12:57;;;;;;;1.53;1.47;;;6.80;92.90;;;;;;5030397;28;20224;-49
2023/02/10 11:15:34;;;;;;;6.43;1.97;;;6.80;94.00;;;;;;5031418;28;20566;-51
2023/02/10 11:18:03;;;;;;;3.10;1.60;;;6.50;93.40;;;;;;5031821;28;20263;-52
2023/02/10 11:20:32;;;;;;;3.60;1.90;;;6.70;94.20;;;;;;5029172;28;20203;-50
2023/02/10 11:23:03;;;;;;;4.20;2.47;;;6.50;92.40;;;;;;5031047;28;20201;-49
2023/02/10 11:25:32;;;;;;;4.30;2.10;;;6.40;92.40;;;;;;5031322;28;20204;-51
2023/02/10 11:28:02;;;;;;;5.20;1.70;;;6.40;92.90;;;;;;5029660;28;20255;-49
2023/02/10 11:30:31;;;;;;;2.10;1.63;;;6.30;93.20;;;;;;5031352;28;20199;-50
2023/02/10 11:32:59;;;;;;;7.27;2.10;;;6.00;92.90;;;;;;5024806;28;20698;-52
2023/02/10 11:35:26;;;;;;;3.17;2.13;;;6.30;95.20;;;;;;5034138;28;20205;-51
2023/02/10 11:37:56;;;;;;;2.90;2.43;;;6.50;96.00;;;;;;5031689;28;20637;-49
2023/02/10 11:40:26;;;;;;;2.63;2.23;;;6.50;95.90;;;;;;5034904;28;20204;-49
2023/02/10 11:42:57;;;;;;;3.80;2.60;;;6.30;94.30;;;;;;5034708;28;20197;-50
2023/02/10 11:45:26;;;;;;;4.60;2.83;;;6.30;94.50;;;;;;5035042;28;20214;-50
2023/02/10 11:48:05;;;;;;;3.40;2.20;;;6.30;95.40;;;;;;5025650;28;20218;-49
2023/02/10 11:50:36;;;;;;;7.23;2.93;;;6.50;94.90;;;;;;5034741;28;20696;-50
2023/02/10 11:53:03;;;;;;;3.30;2.60;;;6.60;94.90;;;;;;5034962;28;20226;-50
2023/02/10 11:55:38;;;;;;;4.17;2.67;;;6.60;95.10;;;;;;5024925;28;20692;-51
2023/02/10 12:01:42;;;;;;;2.40;2.20;;;6.40;95.00;;;;;;4973148;28;20245;-50
2023/02/10 12:04:19;;;;;;;5.90;3.30;;;6.50;95.60;;;;;;4973358;28;20215;-49
2023/02/10 12:06:55;;;;;;;4.60;3.50;;;6.40;95.50;;;;;;5010651;28;20313;-52
2023/02/10 12:09:32;;;;;;;6.00;2.80;;;6.30;94.60;;;;;;5026366;28;20200;-50
2023/02/10 12:12:05;;;;;;;5.50;2.97;;;6.20;95.40;;;;;;5014666;28;20239;-50
2023/02/10 12:14:50;;;;;;;3.30;3.10;;;6.10;96.60;;;;;;5014529;28;20646;-49
2023/02/10 12:17:27;;;;;;;3.83;2.83;;;6.20;96.60;;;;;;5028685;28;20233;-50
2023/02/10 12:20:15;;;;;;;4.20;3.90;;;6.30;96.00;;;;;;5034254;28;20230;-50
2023/02/10 12:22:59;;;;;;;7.97;2.93;;;6.20;96.20;;;;;;5034519;28;20203;-49
2023/02/10 12:25:31;;;;;;;3.00;2.73;;;6.10;96.30;;;;;;5033667;28;20666;-50
2023/02/10 12:28:02;;;;;;;7.23;3.23;;;6.10;97.60;;;;;;5026206;28;20197;-50
2023/02/10 12:30:46;;;;;;;5.37;2.97;;;6.20;95.90;;;;;;5034129;28;20687;-51
2023/02/10 12:33:32;;;;;;;10.17;3.03;;;6.20;95.80;;;;;;5015924;28;20225;-51
2023/02/10 12:36:08;;;;;;;5.33;2.80;;;6.30;96.60;;;;;;5026131;28;20301;-51
2023/02/10 12:38:51;;;;;;;5.63;2.93;;;6.20;95.50;;;;;;5033898;28;20745;-49
2023/02/10 12:41:30;;;;;;;5.13;2.77;;;6.30;95.70;;;;;;5034107;28;20200;-49
2023/02/10 12:44:11;;;;;;;2.43;2.23;;;6.30;95.40;;;;;;5028672;28;20382;-49
2023/02/10 12:46:46;;;;;;;7.63;2.93;;;6.30;95.50;;;;;;5031049;28;20222;-49
2023/02/10 12:49:22;;;;;;;6.17;2.53;;;6.40;96.00;;;;;;5033709;28;20211;-51
2023/02/10 12:52:00;;;;;;;2.40;2.20;;;6.30;94.50;;;;;;5033235;28;20234;-50
2023/02/10 12:54:34;;;;;;;2.93;1.90;;;6.20;93.50;;;;;;5025243;28;20263;-50
2023/02/10 12:57:08;;;;;;;2.13;1.97;;;6.20;93.00;;;;;;5024774;28;20224;-51
2023/02/10 12:59:43;;;;;;;2.83;1.80;;;6.20;93.30;;;;;;5033544;28;20254;-50
2023/02/10 13:02:16;;;;;;;5.50;3.13;;;6.30;92.30;;;;;;5033817;28;20223;-50
2023/02/10 13:04:48;;;;;;;7.10;4.93;;;6.40;93.90;;;;;;5030640;28;20209;-49
2023/02/10 13:07:24;;;;;;;12.67;9.60;;;6.40;95.60;;;;;;5027417;28;20229;-49